Time;durP1;ratioP1;P1;durP2;ratioP2;P2;SDS_P1;SDS_P2;PMS_P1;PMS_P2;Temp;Humidity;BMP_temperature;BMP_pressure;BME280_temperature;BME280_humidity;BME280_pressure;Samples;Min_cycle;Max_cycle;Signal;HPM_P1;HPM_P2
2022/03/08 00:00:27;;;;;;;22.33;12.67;;;;;;;-3.20;72.50;95657.92;1831610;78;20997;-73
2022/03/08 00:02:57;;;;;;;22.77;13.73;;;;;;;-3.17;72.07;95650.70;1831905;78;20978;-73
2022/03/08 00:05:25;;;;;;;20.47;13.17;;;;;;;-3.19;72.10;95653.62;1831857;78;20998;-73
2022/03/08 00:07:53;;;;;;;21.13;11.90;;;;;;;-3.20;72.28;95655.72;1831861;78;21012;-73
2022/03/08 00:10:20;;;;;;;25.50;15.00;;;;;;;-3.33;72.58;95652.70;1831981;78;21535;-73
2022/03/08 00:12:48;;;;;;;20.90;13.30;;;;;;;-3.32;73.14;95662.64;1831906;78;21040;-73
2022/03/08 00:15:18;;;;;;;23.03;13.70;;;;;;;-3.19;73.37;95659.66;1831786;78;21002;-73
2022/03/08 00:17:45;;;;;;;24.43;13.80;;;;;;;-3.08;72.72;95665.19;1832009;78;21046;-73
2022/03/08 00:20:12;;;;;;;25.87;14.53;;;;;;;-3.10;72.03;95663.86;1831855;78;21040;-73
2022/03/08 00:22:40;;;;;;;21.33;13.13;;;;;;;-3.07;72.03;95670.41;1831935;78;20982;-73
2022/03/08 00:25:10;;;;;;;20.57;12.87;;;;;;;-3.12;72.21;95658.19;1831964;78;21503;-73
2022/03/08 00:27:37;;;;;;;23.90;13.13;;;;;;;-3.18;72.93;95658.83;1831722;78;21025;-73
2022/03/08 00:30:06;;;;;;;20.70;12.67;;;;;;;-3.22;73.20;95656.98;1831882;78;21061;-73
2022/03/08 00:32:33;;;;;;;23.10;13.43;;;;;;;-3.27;72.65;95655.94;1831864;78;21456;-78
2022/03/08 00:35:01;;;;;;;24.37;13.87;;;;;;;-3.24;72.59;95657.75;1831883;78;20998;-73
2022/03/08 00:37:27;;;;;;;23.47;14.40;;;;;;;-3.23;72.86;95656.91;1831976;78;20994;-73
2022/03/08 00:39:54;;;;;;;24.47;14.77;;;;;;;-3.25;73.56;95651.72;1831961;78;21001;-73
2022/03/08 00:42:21;;;;;;;25.60;15.30;;;;;;;-3.26;73.77;95649.95;1831980;78;21006;-73
2022/03/08 00:44:48;;;;;;;26.13;15.80;;;;;;;-3.26;73.94;95652.11;1832008;78;20994;-73
2022/03/08 00:47:14;;;;;;;27.43;14.87;;;;;;;-3.26;73.92;95648.66;1831827;78;20988;-73
2022/03/08 00:49:41;;;;;;;23.73;14.73;;;;;;;-3.29;74.13;95645.55;1831784;78;21045;-73
2022/03/08 00:52:10;;;;;;;28.10;15.63;;;;;;;-3.23;74.08;95652.62;1832072;78;21041;-73
2022/03/08 00:54:38;;;;;;;25.40;15.63;;;;;;;-3.09;73.93;95656.57;1831791;78;21033;-73
2022/03/08 00:57:05;;;;;;;26.10;14.87;;;;;;;-2.94;73.70;95656.64;1831920;78;21472;-73
2022/03/08 00:59:33;;;;;;;25.40;15.20;;;;;;;-2.85;73.18;95659.52;1821008;78;21492;-73
2022/03/08 01:02:00;;;;;;;21.37;13.43;;;;;;;-2.76;72.91;95652.08;1821153;79;20994;-75
2022/03/08 01:04:27;;;;;;;23.70;13.93;;;;;;;-2.71;72.10;95657.41;1821160;79;20990;-73
2022/03/08 01:06:55;;;;;;;26.70;15.53;;;;;;;-2.89;71.81;95652.52;1821112;79;21480;-73
2022/03/08 01:09:23;;;;;;;26.80;15.40;;;;;;;-3.05;72.93;95661.03;1821127;79;21037;-73
2022/03/08 01:11:49;;;;;;;22.43;14.33;;;;;;;-3.05;73.48;95661.41;1821111;79;21495;-73
2022/03/08 01:14:17;;;;;;;25.97;14.97;;;;;;;-3.08;73.15;95657.02;1821323;79;20999;-73
2022/03/08 01:16:44;;;;;;;27.13;15.73;;;;;;;-3.16;73.31;95660.18;1821014;79;21044;-73
2022/03/08 01:19:10;;;;;;;26.33;15.90;;;;;;;-3.08;73.68;95662.19;1821211;79;21055;-73
2022/03/08 01:21:37;;;;;;;32.00;16.70;;;;;;;-2.93;73.57;95654.09;1821144;79;21033;-72
2022/03/08 01:24:05;;;;;;;27.83;15.33;;;;;;;-2.85;73.00;95657.83;1821392;79;21496;-75
2022/03/08 01:26:32;;;;;;;23.10;14.50;;;;;;;-2.83;73.07;95653.57;1821177;79;20974;-73
2022/03/08 01:28:59;;;;;;;25.03;14.50;;;;;;;-2.94;72.02;95656.64;1820973;79;21026;-73
2022/03/08 01:31:26;;;;;;;24.00;14.23;;;;;;;-3.10;72.15;95665.54;1821197;79;21002;-73
2022/03/08 01:33:56;;;;;;;21.80;12.90;;;;;;;-3.23;72.67;95653.91;1821231;79;20974;-73
2022/03/08 01:36:26;;;;;;;24.03;12.33;;;;;;;-3.30;72.05;95657.09;1821073;79;20994;-73
2022/03/08 01:38:53;;;;;;;21.17;13.27;;;;;;;-3.39;72.03;95659.38;1821255;79;21002;-72
2022/03/08 01:41:20;;;;;;;20.57;11.87;;;;;;;-3.47;72.47;95660.39;1821224;79;21032;-72
2022/03/08 01:43:47;;;;;;;22.83;12.93;;;;;;;-3.57;72.93;95661.76;1821120;79;21041;-72
2022/03/08 01:46:15;;;;;;;20.57;12.67;;;;;;;-3.55;72.58;95660.12;1821047;79;20975;-72
2022/03/08 01:48:43;;;;;;;22.67;12.23;;;;;;;-3.56;72.72;95665.20;1821245;79;20994;-72
2022/03/08 01:51:13;;;;;;;24.17;13.70;;;;;;;-3.64;72.79;95663.64;1821056;79;20967;-73
2022/03/08 01:53:40;;;;;;;23.97;12.77;;;;;;;-3.70;72.80;95668.17;1821101;79;21014;-73
2022/03/08 01:56:09;;;;;;;22.07;13.00;;;;;;;-3.73;73.00;95664.58;1821144;79;21022;-72
2022/03/08 01:58:37;;;;;;;21.40;12.47;;;;;;;-3.66;73.01;95673.02;1820635;78;21084;-73
2022/03/08 02:01:06;;;;;;;18.70;11.47;;;;;;;-3.57;72.84;95676.36;1821069;79;21006;-73
2022/03/08 02:03:34;;;;;;;19.57;12.70;;;;;;;-3.67;71.75;95662.66;1821116;79;21006;-73
2022/03/08 02:06:01;;;;;;;22.20;12.90;;;;;;;-3.92;72.17;95667.77;1821058;79;21078;-73
2022/03/08 02:08:28;;;;;;;22.97;12.57;;;;;;;-4.05;73.28;95672.42;1821151;79;21061;-73
2022/03/08 02:10:54;;;;;;;20.73;12.07;;;;;;;-4.05;72.99;95672.00;1821053;79;20966;-73
2022/03/08 02:13:21;;;;;;;19.07;11.13;;;;;;;-4.07;72.70;95677.92;1821128;79;21449;-72
2022/03/08 02:15:50;;;;;;;22.57;12.23;;;;;;;-4.12;72.74;95671.30;1821135;79;20978;-72
2022/03/08 02:18:17;;;;;;;21.77;13.57;;;;;;;-4.16;73.19;95672.89;1820905;79;21497;-73
2022/03/08 02:20:44;;;;;;;23.47;12.90;;;;;;;-3.99;73.52;95676.50;1821225;79;21010;-73
2022/03/08 02:23:10;;;;;;;21.77;12.43;;;;;;;-3.87;73.14;95674.39;1821269;79;21046;-72
2022/03/08 02:25:37;;;;;;;19.67;11.93;;;;;;;-3.86;72.22;95677.84;1821012;79;21009;-72
2022/03/08 02:28:05;;;;;;;18.90;12.13;;;;;;;-3.97;72.44;95672.30;1821364;79;20985;-72
2022/03/08 02:30:32;;;;;;;21.57;13.17;;;;;;;-4.01;72.24;95675.14;1820851;79;21030;-72
2022/03/08 02:32:59;;;;;;;22.60;11.93;;;;;;;-3.96;72.73;95676.20;1821101;79;20986;-72
2022/03/08 02:35:29;;;;;;;27.73;13.03;;;;;;;-3.88;72.57;95673.94;1821145;79;20971;-72
2022/03/08 02:38:00;;;;;;;20.80;11.07;;;;;;;-3.79;72.53;95672.10;1821343;79;20954;-72
2022/03/08 02:40:31;;;;;;;21.97;12.37;;;;;;;-3.79;71.54;95673.39;1821175;79;21496;-72
2022/03/08 02:42:59;;;;;;;18.73;11.33;;;;;;;-3.96;71.54;95685.22;1821508;79;21468;-72
2022/03/08 02:45:26;;;;;;;19.30;11.57;;;;;;;-4.09;71.51;95681.71;1821162;79;22393;-72
2022/03/08 02:47:53;;;;;;;19.20;11.83;;;;;;;-4.19;72.14;95678.31;1821301;79;21082;-72
2022/03/08 02:50:20;;;;;;;22.13;12.00;;;;;;;-4.25;72.14;95681.95;1821346;79;21022;-72
2022/03/08 02:52:51;;;;;;;20.13;11.53;;;;;;;-4.32;73.35;95687.27;1821247;79;20993;-72
2022/03/08 02:55:22;;;;;;;20.77;11.43;;;;;;;-4.24;74.06;95687.14;1821616;79;21014;-73
2022/03/08 02:57:49;;;;;;;19.27;10.53;;;;;;;-4.20;73.42;95683.88;1821378;78;20977;-72
2022/03/08 03:00:19;;;;;;;19.33;11.13;;;;;;;-4.12;73.01;95685.88;1831727;78;21776;-73
2022/03/08 03:02:47;;;;;;;20.87;11.83;;;;;;;-4.03;73.14;95688.41;1831946;78;20985;-73
2022/03/08 03:05:13;;;;;;;20.73;11.43;;;;;;;-3.98;72.83;95684.69;1831906;78;21487;-73
2022/03/08 03:07:41;;;;;;;20.20;11.10;;;;;;;-3.99;72.65;95685.11;1831902;78;20993;-72
2022/03/08 03:10:11;;;;;;;18.90;11.00;;;;;;;-3.97;72.66;95689.05;1832005;78;21014;-72
2022/03/08 03:12:38;;;;;;;20.33;11.47;;;;;;;-3.94;72.67;95682.30;1830632;78;21065;-72
2022/03/08 03:15:09;;;;;;;22.10;11.97;;;;;;;-3.86;72.38;95677.84;1831779;78;21010;-72
2022/03/08 03:17:36;;;;;;;20.13;11.23;;;;;;;-3.88;72.03;95674.33;1831907;78;20950;-73
2022/03/08 03:20:06;;;;;;;22.70;12.93;;;;;;;-3.95;71.91;95675.81;1832056;78;21057;-72
2022/03/08 03:22:32;;;;;;;24.97;13.23;;;;;;;-4.04;72.95;95676.33;1831934;78;21005;-72
2022/03/08 03:24:59;;;;;;;22.27;11.80;;;;;;;-3.98;73.39;95681.73;1832028;78;21472;-72
2022/03/08 03:27:25;;;;;;;26.07;14.23;;;;;;;-3.94;73.33;95682.71;1832126;78;21028;-73
2022/03/08 03:29:52;;;;;;;24.53;14.53;;;;;;;-3.95;73.35;95683.55;1831797;78;21456;-72
2022/03/08 03:32:23;;;;;;;29.80;16.10;;;;;;;-3.89;73.33;95690.20;1831846;78;21021;-72
2022/03/08 03:34:47;;;;;;;26.13;14.63;;;;;;;-3.87;73.22;95687.70;1830520;78;21085;-72
2022/03/08 03:37:13;;;;;;;20.80;13.93;;;;;;;-3.86;73.16;95686.86;1831908;78;20963;-72
2022/03/08 03:39:40;;;;;;;26.43;13.60;;;;;;;-3.82;72.95;95690.91;1831915;78;20974;-73
2022/03/08 03:42:08;;;;;;;24.50;14.57;;;;;;;-3.78;72.95;95695.76;1831766;78;21042;-73
2022/03/08 03:44:35;;;;;;;23.67;13.60;;;;;;;-3.74;72.59;95693.36;1831914;78;21460;-72
2022/03/08 03:47:01;;;;;;;22.07;12.00;;;;;;;-3.88;71.81;95692.37;1831790;78;21006;-73
2022/03/08 03:49:28;;;;;;;25.73;13.63;;;;;;;-4.08;72.17;95694.18;1831815;78;21024;-73
2022/03/08 03:51:55;;;;;;;41.33;15.20;;;;;;;-4.12;73.20;95689.33;1832024;78;21104;-72
2022/03/08 03:54:22;;;;;;;42.07;18.83;;;;;;;-4.09;73.68;95692.44;1831925;78;21033;-72
2022/03/08 03:56:48;;;;;;;52.37;24.17;;;;;;;-4.20;73.62;95692.90;1831917;78;21045;-72
2022/03/08 03:59:16;;;;;;;32.20;16.40;;;;;;;-4.21;74.12;95701.84;1829065;78;20998;-72
2022/03/08 04:01:43;;;;;;;33.80;18.00;;;;;;;-4.16;73.64;95713.20;1826236;78;20978;-73
2022/03/08 04:04:09;;;;;;;29.10;15.50;;;;;;;-4.16;73.41;95720.55;1826139;78;21429;-73
2022/03/08 04:06:36;;;;;;;27.07;15.17;;;;;;;-4.14;73.59;95716.73;1826036;78;21011;-72
2022/03/08 04:09:04;;;;;;;26.23;15.27;;;;;;;-4.07;73.46;95725.17;1826238;78;21053;-73
2022/03/08 04:11:31;;;;;;;27.67;15.53;;;;;;;-4.04;73.24;95734.72;1825977;78;21045;-73
2022/03/08 04:13:58;;;;;;;23.57;12.50;;;;;;;-3.97;73.28;95722.55;1826109;78;21032;-73
2022/03/08 04:16:25;;;;;;;31.37;16.40;;;;;;;-4.01;72.84;95703.91;1826002;78;20970;-72
2022/03/08 04:18:52;;;;;;;42.57;20.13;;;;;;;-4.17;73.76;95707.59;1825841;78;21478;-72
2022/03/08 04:21:18;;;;;;;115.30;41.00;;;;;;;-4.20;74.54;95701.05;1826099;78;20946;-72
2022/03/08 04:23:45;;;;;;;678.07;243.53;;;;;;;-4.17;74.62;95714.04;1826185;78;21012;-76
2022/03/08 04:26:12;;;;;;;77.67;29.53;;;;;;;-4.15;74.75;95713.70;1826016;78;21287;-69
2022/03/08 04:28:39;;;;;;;30.40;13.83;;;;;;;-4.13;75.03;95713.35;1826196;78;21053;-69
2022/03/08 04:31:05;;;;;;;78.67;35.80;;;;;;;-4.25;74.53;95699.98;1826049;78;21044;-69
2022/03/08 04:33:32;;;;;;;40.57;19.40;;;;;;;-4.32;74.45;95705.29;1826232;78;21108;-69
2022/03/08 04:35:58;;;;;;;41.37;19.37;;;;;;;-4.35;74.17;95694.87;1826124;78;21013;-68
2022/03/08 04:38:25;;;;;;;75.83;38.60;;;;;;;-4.37;74.72;95697.38;1826111;78;21003;-69
2022/03/08 04:40:52;;;;;;;49.30;24.00;;;;;;;-4.31;75.58;95695.45;1826113;78;21311;-69
2022/03/08 04:43:18;;;;;;;71.03;30.03;;;;;;;-4.22;75.37;95697.52;1826140;78;21042;-69
2022/03/08 04:45:45;;;;;;;59.37;28.33;;;;;;;-4.15;74.87;95703.39;1826041;78;21009;-68
2022/03/08 04:48:12;;;;;;;57.67;27.10;;;;;;;-4.11;74.91;95696.64;1826062;78;21010;-68
2022/03/08 04:50:40;;;;;;;51.07;25.53;;;;;;;-3.99;74.99;95699.28;1826273;78;20982;-69
2022/03/08 04:53:06;;;;;;;44.47;23.53;;;;;;;-3.95;74.48;95702.87;1826002;78;21010;-69
2022/03/08 04:55:33;;;;;;;30.93;17.07;;;;;;;-3.90;74.33;95705.64;1826044;78;21512;-69
2022/03/08 04:58:01;;;;;;;36.37;19.67;;;;;;;-3.88;73.93;95710.03;1826072;78;21452;-68
2022/03/08 05:00:28;;;;;;;42.97;21.27;;;;;;;-3.93;73.62;95707.27;1821838;78;21048;-69
2022/03/08 05:02:54;;;;;;;35.07;18.73;;;;;;;-3.92;73.67;95702.57;1821199;79;20963;-69
2022/03/08 05:05:21;;;;;;;31.43;18.57;;;;;;;-3.89;73.59;95700.52;1821233;79;21520;-69
2022/03/08 05:07:48;;;;;;;31.23;17.60;;;;;;;-3.86;73.53;95694.19;1821080;79;21026;-69
2022/03/08 05:10:14;;;;;;;30.20;17.70;;;;;;;-3.83;73.27;95700.77;1821181;79;21508;-69
2022/03/08 05:12:42;;;;;;;33.90;18.17;;;;;;;-3.80;73.80;95702.59;1821227;79;21009;-69
2022/03/08 05:15:10;;;;;;;37.80;18.73;;;;;;;-3.83;73.74;95708.89;1821095;79;21476;-69
2022/03/08 05:17:37;;;;;;;31.67;16.83;;;;;;;-3.83;74.06;95709.80;1821047;79;21508;-69
2022/03/08 05:20:06;;;;;;;31.03;17.00;;;;;;;-3.89;73.36;95688.05;1821198;79;20994;-69
2022/03/08 05:22:33;;;;;;;32.40;17.30;;;;;;;-4.02;73.94;95695.31;1821069;79;21033;-69
2022/03/08 05:25:00;;;;;;;39.37;21.77;;;;;;;-4.01;74.75;95709.94;1821111;79;21058;-68
2022/03/08 05:27:26;;;;;;;33.67;19.73;;;;;;;-3.91;75.02;95724.06;1821038;79;20946;-68
2022/03/08 05:29:53;;;;;;;43.97;21.17;;;;;;;-3.83;75.01;95723.97;1821310;79;21070;-69
2022/03/08 05:32:20;;;;;;;44.27;21.07;;;;;;;-3.82;74.41;95717.98;1821179;79;20983;-69
2022/03/08 05:34:46;;;;;;;38.57;21.77;;;;;;;-3.65;74.64;95731.91;1821189;79;21002;-69
2022/03/08 05:37:13;;;;;;;39.30;20.93;;;;;;;-3.58;74.22;95733.90;1821177;79;21500;-69
2022/03/08 05:39:40;;;;;;;31.10;18.00;;;;;;;-3.47;74.09;95727.88;1821060;79;21065;-69
2022/03/08 05:42:07;;;;;;;28.97;16.73;;;;;;;-3.37;73.43;95728.69;1821220;79;20986;-68
2022/03/08 05:44:33;;;;;;;38.33;19.80;;;;;;;-3.32;72.81;95738.34;1821098;79;21007;-69
2022/03/08 05:47:00;;;;;;;34.73;17.83;;;;;;;-3.22;72.95;95738.69;1821159;79;20990;-69
2022/03/08 05:49:27;;;;;;;40.53;19.87;;;;;;;-3.19;72.32;95729.34;1821043;79;21516;-68
2022/03/08 05:51:54;;;;;;;41.50;23.07;;;;;;;-3.33;72.50;95734.40;1821271;79;20983;-69
2022/03/08 05:54:20;;;;;;;42.67;23.30;;;;;;;-3.23;72.96;95742.06;1821173;79;21010;-68
2022/03/08 05:56:47;;;;;;;43.90;23.77;;;;;;;-3.17;73.08;95741.89;1821065;79;21511;-69
2022/03/08 05:59:14;;;;;;;57.00;30.17;;;;;;;-3.12;72.82;95740.77;1822015;78;21048;-71
2022/03/08 06:01:41;;;;;;;65.23;34.43;;;;;;;-3.08;72.93;95736.16;1825169;78;21037;-77
2022/03/08 06:04:08;;;;;;;66.57;33.57;;;;;;;-3.03;72.81;95742.79;1824621;78;21025;-69
2022/03/08 06:06:34;;;;;;;67.80;36.63;;;;;;;-3.02;72.41;95744.15;1824516;78;21006;-77
2022/03/08 06:09:01;;;;;;;55.57;32.97;;;;;;;-2.94;72.36;95730.22;1824470;78;21029;-76
2022/03/08 06:11:27;;;;;;;53.10;27.70;;;;;;;-2.86;71.96;95738.69;1824471;78;21068;-72
2022/03/08 06:13:54;;;;;;;38.33;21.70;;;;;;;-2.75;72.05;95738.17;1825861;78;21006;-66
2022/03/08 06:16:20;;;;;;;31.83;18.90;;;;;;;-2.62;72.02;95736.50;1826056;78;21532;-75
2022/03/08 06:18:47;;;;;;;33.87;18.67;;;;;;;-2.48;71.65;95740.41;1825643;78;21495;-72
2022/03/08 06:21:14;;;;;;;31.73;18.30;;;;;;;-2.35;70.92;95731.77;1826043;78;20959;-71
2022/03/08 06:23:40;;;;;;;40.80;21.73;;;;;;;-2.20;70.91;95739.61;1825574;78;21002;-72
2022/03/08 06:26:08;;;;;;;41.57;21.40;;;;;;;-2.12;70.06;95740.27;1826135;78;20990;-71
2022/03/08 06:28:35;;;;;;;37.73;20.37;;;;;;;-2.13;69.57;95744.98;1826049;78;21006;-70
2022/03/08 06:31:01;;;;;;;34.00;20.47;;;;;;;-2.05;69.85;95741.80;1826144;78;21021;-72
2022/03/08 06:33:28;;;;;;;35.53;19.47;;;;;;;-2.01;69.45;95746.68;1824844;78;21053;-76
2022/03/08 06:35:55;;;;;;;32.53;18.70;;;;;;;-2.00;68.92;95749.30;1825973;78;21492;-72
2022/03/08 06:38:21;;;;;;;33.13;18.53;;;;;;;-1.99;68.96;95751.45;1825653;78;20998;-71
2022/03/08 06:40:48;;;;;;;35.73;19.43;;;;;;;-1.99;68.74;95753.66;1826219;78;21013;-69
2022/03/08 06:43:14;;;;;;;31.73;18.97;;;;;;;-1.89;68.76;95753.92;1825919;78;21018;-69
2022/03/08 06:45:41;;;;;;;36.63;18.43;;;;;;;-1.83;68.58;95757.59;1826014;78;21029;-68
2022/03/08 06:48:09;;;;;;;34.13;17.20;;;;;;;-1.76;68.30;95757.38;1826126;78;20985;-76
2022/03/08 06:50:36;;;;;;;32.00;17.13;;;;;;;-1.69;67.79;95757.14;1826087;78;21495;-68
2022/03/08 06:53:03;;;;;;;28.50;16.43;;;;;;;-1.60;67.92;95756.14;1826279;78;20989;-71
2022/03/08 06:55:29;;;;;;;29.63;18.17;;;;;;;-1.55;66.82;95758.02;1826165;78;21472;-71
2022/03/08 06:57:56;;;;;;;34.77;21.87;;;;;;;-1.49;66.23;95762.50;1825895;78;21018;-69
2022/03/08 07:00:23;;;;;;;35.50;20.07;;;;;;;-1.42;65.91;95757.11;1823168;78;21513;-70
2022/03/08 07:02:49;;;;;;;29.90;16.67;;;;;;;-1.43;65.92;95752.35;1821232;79;20978;-68
2022/03/08 07:05:16;;;;;;;26.07;15.67;;;;;;;-1.57;66.44;95750.63;1821184;79;21014;-69
2022/03/08 07:07:43;;;;;;;27.17;16.00;;;;;;;-1.63;66.34;95747.87;1821352;79;21040;-68
2022/03/08 07:10:09;;;;;;;28.27;16.93;;;;;;;-1.41;66.15;95752.38;1821038;79;21041;-75
2022/03/08 07:12:36;;;;;;;30.77;18.30;;;;;;;-1.24;65.84;95756.77;1820898;79;21544;-74
2022/03/08 07:15:03;;;;;;;24.57;14.10;;;;;;;-1.03;66.42;95741.86;1821359;79;20970;-69
2022/03/08 07:17:29;;;;;;;28.63;16.80;;;;;;;-0.90;64.42;95754.31;1821065;79;21037;-68
2022/03/08 07:19:56;;;;;;;27.50;16.27;;;;;;;-0.89;64.13;95753.88;1821129;79;21516;-70
2022/03/08 07:22:22;;;;;;;29.07;17.57;;;;;;;-0.72;63.73;95758.24;1821070;79;21005;-71
2022/03/08 07:24:49;;;;;;;28.73;17.30;;;;;;;-0.66;63.61;95753.21;1821302;79;21469;-71
2022/03/08 07:27:15;;;;;;;26.63;16.03;;;;;;;-0.49;63.74;95749.36;1821114;79;20998;-71
2022/03/08 07:29:44;;;;;;;31.33;18.57;;;;;;;-0.56;61.95;95743.97;1821304;79;21037;-71
2022/03/08 07:32:10;;;;;;;27.50;16.20;;;;;;;-0.51;62.69;95747.14;1821101;79;21037;-74
2022/03/08 07:34:37;;;;;;;27.80;18.37;;;;;;;-0.39;62.20;95745.72;1820894;79;21477;-72
2022/03/08 07:37:04;;;;;;;28.37;16.83;;;;;;;-0.31;62.21;95748.08;1821101;79;20998;-85
2022/03/08 07:39:30;;;;;;;28.97;16.20;;;;;;;-0.26;61.70;95746.48;1821331;79;20982;-80
2022/03/08 07:41:57;;;;;;;25.23;15.10;;;;;;;-0.26;61.29;95747.35;1821068;79;21469;-79
2022/03/08 07:44:24;;;;;;;25.07;15.67;;;;;;;-0.23;61.14;95751.73;1821216;79;20995;-84
2022/03/08 07:46:50;;;;;;;27.90;17.03;;;;;;;-0.33;60.85;95753.64;1821243;79;21070;-77
2022/03/08 07:49:17;;;;;;;24.90;15.67;;;;;;;-0.23;60.93;95749.14;1820861;79;20978;-81
2022/03/08 07:51:43;;;;;;;22.73;14.07;;;;;;;-0.03;60.15;95752.23;1820937;79;21026;-75
2022/03/08 07:54:10;;;;;;;32.50;18.67;;;;;;;0.07;60.03;95754.22;1821297;79;20982;-72
2022/03/08 07:56:36;;;;;;;24.60;16.73;;;;;;;0.28;60.71;95743.48;1820676;79;21093;-77
2022/03/08 07:59:03;;;;;;;31.50;19.40;;;;;;;0.65;60.55;95740.41;1821077;79;21010;-78
2022/03/08 08:01:30;;;;;;;28.80;14.10;;;;;;;0.91;59.57;95737.48;1820520;78;21129;-80
2022/03/08 08:03:56;;;;;;;28.90;16.33;;;;;;;1.10;58.20;95734.84;1792720;79;21044;-76
2022/03/08 08:06:23;;;;;;;22.03;13.00;;;;;;;1.30;57.64;95734.38;1792894;79;21074;-77
2022/03/08 08:08:50;;;;;;;19.03;11.60;;;;;;;1.41;55.27;95724.21;1792798;79;21043;-76
2022/03/08 08:11:17;;;;;;;14.33;9.20;;;;;;;1.61;54.63;95721.08;1792815;80;21561;-79
2022/03/08 08:13:43;;;;;;;15.30;9.13;;;;;;;1.59;51.25;95720.16;1793137;80;21022;-79
2022/03/08 08:16:10;;;;;;;10.20;7.30;;;;;;;1.61;50.68;95721.08;1792710;79;21103;-74
2022/03/08 08:18:36;;;;;;;6.10;4.13;;;;;;;1.47;50.76;95720.41;1793125;79;20980;-82
2022/03/08 08:21:04;;;;;;;10.87;6.70;;;;;;;1.08;48.48;95723.11;1793070;79;21020;-76
2022/03/08 08:23:30;;;;;;;10.23;6.50;;;;;;;1.02;50.05;95719.97;1793286;79;21040;-71
2022/03/08 08:25:57;;;;;;;12.57;7.87;;;;;;;1.12;51.14;95723.64;1792931;80;21080;-74
2022/03/08 08:28:24;;;;;;;13.60;8.53;;;;;;;1.35;52.79;95720.17;1793781;80;21004;-75
2022/03/08 08:30:50;;;;;;;15.07;9.40;;;;;;;1.46;50.67;95726.87;1795431;78;21062;-77
2022/03/08 08:33:17;;;;;;;15.03;10.07;;;;;;;1.40;50.52;95721.56;1799600;80;20996;-73
2022/03/08 08:35:44;;;;;;;13.70;7.53;;;;;;;1.53;52.86;95723.97;1799463;80;21027;-73
2022/03/08 08:38:10;;;;;;;15.23;9.53;;;;;;;1.56;51.99;95722.72;1799337;80;21490;-73
2022/03/08 08:40:37;;;;;;;19.43;9.87;;;;;;;1.57;52.41;95721.89;1808461;78;20999;-75
2022/03/08 08:43:05;;;;;;;14.93;8.80;;;;;;;1.64;50.65;95728.95;1826197;78;20994;-73
2022/03/08 08:45:35;;;;;;;16.80;9.87;;;;;;;1.63;48.49;95728.05;1825713;78;21010;-73
2022/03/08 08:48:07;;;;;;;18.00;10.37;;;;;;;1.71;50.54;95725.19;1826134;78;20990;-73
2022/03/08 08:50:34;;;;;;;14.57;9.83;;;;;;;1.64;49.39;95724.63;1825810;78;21088;-72
2022/03/08 08:53:01;;;;;;;14.73;7.57;;;;;;;1.77;49.88;95719.20;1825972;78;21009;-72
2022/03/08 08:55:28;;;;;;;17.53;8.50;;;;;;;1.54;48.54;95720.11;1826280;78;21456;-74
2022/03/08 08:57:55;;;;;;;11.10;7.17;;;;;;;1.53;48.78;95714.44;1825917;78;20966;-75
2022/03/08 09:00:22;;;;;;;13.17;8.23;;;;;;;1.72;48.10;95716.52;1827712;78;21483;-76
2022/03/08 09:02:48;;;;;;;8.57;5.97;;;;;;;1.92;49.01;95718.59;1831549;78;20962;-76
2022/03/08 09:05:15;;;;;;;9.37;6.87;;;;;;;2.00;46.59;95714.39;1831783;78;21496;-75
2022/03/08 09:07:42;;;;;;;15.30;8.60;;;;;;;2.21;49.34;95710.37;1831745;78;21002;-75
2022/03/08 09:10:09;;;;;;;14.07;8.57;;;;;;;2.41;48.67;95718.05;1831750;78;21013;-74
2022/03/08 09:12:36;;;;;;;9.93;6.60;;;;;;;2.21;48.43;95714.27;1831788;78;21001;-74
2022/03/08 09:15:04;;;;;;;11.47;6.13;;;;;;;2.31;49.00;95711.82;1831686;78;21508;-76
2022/03/08 09:17:31;;;;;;;12.40;8.00;;;;;;;2.51;45.34;95711.25;1831850;78;21663;-75
2022/03/08 09:19:57;;;;;;;12.57;9.53;;;;;;;2.74;48.21;95711.56;1831714;78;20978;-72
2022/03/08 09:22:24;;;;;;;9.80;6.57;;;;;;;2.86;49.26;95705.22;1831787;78;21053;-74
2022/03/08 09:24:50;;;;;;;11.70;7.80;;;;;;;2.75;46.15;95708.99;1831850;78;21028;-72
2022/03/08 09:27:17;;;;;;;10.47;5.70;;;;;;;2.56;46.37;95714.36;1831681;78;21054;-73
2022/03/08 09:29:44;;;;;;;9.80;6.37;;;;;;;2.31;45.87;95718.77;1831881;78;20997;-71
2022/03/08 09:32:10;;;;;;;7.23;4.93;;;;;;;2.00;46.48;95718.72;1831920;78;21105;-70
2022/03/08 09:34:39;;;;;;;7.87;5.57;;;;;;;1.84;45.80;95724.07;1831746;78;21507;-73
2022/03/08 09:37:07;;;;;;;8.77;5.40;;;;;;;1.89;47.85;95715.92;1831791;78;21519;-75
2022/03/08 09:39:34;;;;;;;11.07;6.23;;;;;;;1.65;46.66;95715.09;1831864;78;20974;-81
2022/03/08 09:42:03;;;;;;;8.37;4.17;;;;;;;1.67;47.22;95714.70;1831735;78;21567;-76
2022/03/08 09:44:29;;;;;;;12.93;6.97;;;;;;;1.60;47.62;95719.33;1831895;78;20981;-71
2022/03/08 09:46:56;;;;;;;10.77;6.53;;;;;;;1.48;47.46;95719.98;1832033;78;20950;-75
2022/03/08 09:49:22;;;;;;;9.27;5.80;;;;;;;1.47;47.57;95721.70;1831622;78;20998;-73
2022/03/08 09:51:52;;;;;;;6.60;4.43;;;;;;;1.40;48.32;95717.67;1832033;78;20990;-74
2022/03/08 09:54:19;;;;;;;6.03;4.00;;;;;;;1.40;48.00;95717.23;1832118;78;20954;-76
2022/03/08 09:56:47;;;;;;;8.07;3.80;;;;;;;1.38;48.19;95725.86;1831970;78;20967;-70
2022/03/08 09:59:20;;;;;;;4.77;3.30;;;;;;;1.36;47.41;95721.05;1832132;78;21052;-74
2022/03/08 10:01:48;;;;;;;7.23;4.27;;;;;;;1.33;48.01;95716.66;1826361;78;21074;-76
2022/03/08 10:04:19;;;;;;;4.53;3.20;;;;;;;1.28;47.76;95717.87;1826020;78;21022;-69
2022/03/08 10:06:51;;;;;;;4.70;3.50;;;;;;;1.30;47.50;95717.91;1826261;78;21006;-69
2022/03/08 10:09:18;;;;;;;10.37;4.73;;;;;;;1.23;47.32;95723.84;1824726;78;21009;-70
2022/03/08 10:11:50;;;;;;;11.23;6.60;;;;;;;1.26;47.86;95717.39;1825440;78;21053;-69
2022/03/08 10:14:28;;;;;;;10.40;7.20;;;;;;;1.28;47.73;95722.20;1826142;78;20954;-68
2022/03/08 10:16:54;;;;;;;7.53;5.60;;;;;;;1.30;48.20;95714.89;1825988;78;21021;-68
2022/03/08 10:19:21;;;;;;;5.70;4.23;;;;;;;1.37;48.45;95715.89;1826118;78;21033;-69
2022/03/08 10:21:52;;;;;;;10.27;6.80;;;;;;;1.49;48.40;95717.84;1825937;78;21066;-69
2022/03/08 10:24:24;;;;;;;11.33;6.50;;;;;;;1.65;49.29;95719.86;1826115;78;21026;-69
2022/03/08 10:27:06;;;;;;;18.27;11.25;;;;;;;1.85;48.68;95718.03;1826295;78;21049;-69
2022/03/08 10:29:36;;;;;;;16.20;10.00;;;;;;;1.87;50.91;95726.32;1826016;78;20986;-68
2022/03/08 10:32:20;;;;;;;12.90;8.73;;;;;;;1.66;51.82;95720.73;1825730;78;21152;-70
2022/03/08 10:34:50;;;;;;;17.17;10.33;;;;;;;1.46;52.89;95719.06;1825039;78;20998;-69
2022/03/08 10:37:20;;;;;;;14.03;9.80;;;;;;;1.35;53.43;95724.50;1824856;78;20998;-69
2022/03/08 10:39:57;;;;;;;12.57;7.83;;;;;;;1.34;54.10;95734.03;1825689;78;21074;-69
2022/03/08 10:42:32;;;;;;;15.87;8.47;;;;;;;1.08;53.55;95733.11;1825680;78;21037;-70
2022/03/08 10:45:15;;;;;;;16.03;8.40;;;;;;;1.01;53.14;95731.66;1825801;78;21103;-69
2022/03/08 10:47:52;;;;;;;26.17;12.45;;;;;;;0.92;53.41;95738.82;1826128;78;21496;-68
2022/03/08 10:50:23;;;;;;;17.97;8.87;;;;;;;0.90;53.30;95739.63;1825746;78;21101;-68
2022/03/08 10:52:54;;;;;;;12.23;7.87;;;;;;;0.90;53.51;95736.61;1825707;78;21029;-68
2022/03/08 10:55:28;;;;;;;18.70;8.30;;;;;;;0.94;54.23;95741.46;1826207;78;21517;-68
2022/03/08 10:57:59;;;;;;;11.13;6.93;;;;;;;1.02;53.78;95737.30;1824939;78;21045;-68
2022/03/08 11:00:29;;;;;;;12.60;6.87;;;;;;;1.04;53.64;95733.01;1824947;78;21014;-68
2022/03/08 11:03:06;;;;;;;15.67;6.93;;;;;;;1.12;53.62;95737.06;1824575;78;20987;-68
2022/03/08 11:05:37;;;;;;;23.80;13.17;;;;;;;1.16;53.70;95738.86;1821061;79;21021;-68
2022/03/08 11:08:05;;;;;;;21.03;13.00;;;;;;;1.17;54.36;95744.09;1820714;79;20994;-68
2022/03/08 11:10:33;;;;;;;21.37;11.97;;;;;;;1.05;54.55;95734.31;1821161;79;21068;-68
2022/03/08 11:13:02;;;;;;;21.80;12.77;;;;;;;1.03;54.79;95732.14;1821204;79;20966;-68
2022/03/08 11:15:34;;;;;;;17.97;12.27;;;;;;;1.01;55.04;95734.25;1821230;79;21010;-68
2022/03/08 11:18:03;;;;;;;19.97;11.33;;;;;;;1.12;54.89;95735.33;1821406;79;21029;-68
2022/03/08 11:20:29;;;;;;;21.27;13.20;;;;;;;1.24;54.25;95729.08;1820821;79;21053;-68
2022/03/08 11:22:59;;;;;;;15.90;11.03;;;;;;;1.37;54.37;95728.02;1821413;79;21085;-69